ARG1677 SAZS-SABE
Flight info
| Callsign | ARG1677 |
|---|---|
| Flight time | 1h 43m |
| Altitude | 37000 |
| Route | LIMAY2C LIMAY UW26 EGUNO UZ109 ISMIL UT655 ASADA ASADA8Q |
| Aircraft | B738/M-MSDFGHILRVW/LB1 |
Departure
| Time | 2026-04-24 21:59 |
|---|---|
| Airport | Teniente Luis Candelaria International Airport (SAZS) |
Arrival
| Time | 2026-04-24 23:42 |
|---|---|
| Airport | Aeroparque Jorge Newbery (SABE) |
| Time | Latitude | Longitude | Altitude | Speed | Heading |
|---|---|---|---|---|---|
| 2026-04-24 21:40 | -41.14717 | -71.16110 | 2748 ft | 0 kts | 67° |
| 2026-04-24 21:43 | -41.14719 | -71.16117 | 2748 ft | 4 kts | 67° |
| 2026-04-24 21:43 | -41.14730 | -71.16150 | 2748 ft | 4 kts | 66° |
| 2026-04-24 21:43 | -41.14742 | -71.16181 | 2750 ft | 4 kts | 50° |
| 2026-04-24 21:44 | -41.14757 | -71.16199 | 2751 ft | 3 kts | 24° |
| 2026-04-24 21:44 | -41.14778 | -71.16216 | 2750 ft | 4 kts | 57° |
| 2026-04-24 21:44 | -41.14783 | -71.16246 | 2750 ft | 3 kts | 111° |
| 2026-04-24 21:44 | -41.14782 | -71.16251 | 2753 ft | 0 kts | 115° |
| 2026-04-24 21:46 | -41.14783 | -71.16248 | 2749 ft | 3 kts | 115° |
| 2026-04-24 21:46 | -41.14808 | -71.16177 | 2751 ft | 13 kts | 114° |
| 2026-04-24 21:47 | -41.14848 | -71.16060 | 2748 ft | 15 kts | 114° |
| 2026-04-24 21:47 | -41.14880 | -71.15972 | 2751 ft | 16 kts | 115° |
| 2026-04-24 21:47 | -41.14950 | -71.15772 | 2748 ft | 19 kts | 115° |
| 2026-04-24 21:47 | -41.15004 | -71.15616 | 2748 ft | 18 kts | 115° |
| 2026-04-24 21:48 | -41.15057 | -71.15464 | 2749 ft | 18 kts | 115° |
| 2026-04-24 21:48 | -41.15109 | -71.15317 | 2748 ft | 17 kts | 115° |
| 2026-04-24 21:48 | -41.15158 | -71.15175 | 2748 ft | 17 kts | 115° |
| 2026-04-24 21:48 | -41.15206 | -71.15039 | 2748 ft | 16 kts | 115° |
| 2026-04-24 21:49 | -41.15252 | -71.14907 | 2748 ft | 15 kts | 115° |
| 2026-04-24 21:49 | -41.15296 | -71.14781 | 2748 ft | 15 kts | 115° |
| 2026-04-24 21:49 | -41.15339 | -71.14660 | 2748 ft | 14 kts | 115° |
| 2026-04-24 21:49 | -41.15379 | -71.14544 | 2748 ft | 13 kts | 114° |
| 2026-04-24 21:50 | -41.15438 | -71.14470 | 2748 ft | 8 kts | 187° |
| 2026-04-24 21:50 | -41.15450 | -71.14475 | 2748 ft | 0 kts | 201° |
| 2026-04-24 21:57 | -41.15465 | -71.14483 | 2748 ft | 7 kts | 201° |
| 2026-04-24 21:58 | -41.15525 | -71.14538 | 2748 ft | 12 kts | 245° |
| 2026-04-24 21:58 | -41.15498 | -71.14662 | 2749 ft | 27 kts | 295° |
| 2026-04-24 21:58 | -41.15315 | -71.15187 | 2751 ft | 97 kts | 295° |
| 2026-04-24 21:58 | -41.14951 | -71.16244 | 2816 ft | 148 kts | 295° |
| 2026-04-24 21:59 | -41.14654 | -71.17098 | 3119 ft | 161 kts | 296° |
| 2026-04-24 21:59 | -41.14174 | -71.18472 | 3855 ft | 162 kts | 294° |
| 2026-04-24 21:59 | -41.13673 | -71.19959 | 4272 ft | 191 kts | 293° |
| 2026-04-24 21:59 | -41.13100 | -71.21667 | 4525 ft | 216 kts | 293° |
| 2026-04-24 22:00 | -41.12465 | -71.23556 | 5067 ft | 228 kts | 292° |
| 2026-04-24 22:00 | -41.11811 | -71.25497 | 5754 ft | 233 kts | 292° |
| 2026-04-24 22:00 | -41.11143 | -71.27480 | 6112 ft | 234 kts | 292° |
| 2026-04-24 22:00 | -41.10475 | -71.29459 | 6218 ft | 238 kts | 292° |
| 2026-04-24 22:01 | -41.09797 | -71.31465 | 6231 ft | 239 kts | 292° |
| 2026-04-24 22:01 | -41.09114 | -71.33484 | 6416 ft | 241 kts | 292° |
| 2026-04-24 22:01 | -41.08408 | -71.35507 | 7234 ft | 240 kts | 297° |
| 2026-04-24 22:01 | -41.07257 | -71.37085 | 8286 ft | 241 kts | 323° |
| 2026-04-24 22:02 | -41.05656 | -71.37847 | 9140 ft | 258 kts | 346° |
| 2026-04-24 22:02 | -41.03806 | -71.37645 | 9853 ft | 281 kts | 12° |
| 2026-04-24 22:02 | -41.02080 | -71.36269 | 10564 ft | 300 kts | 41° |
| 2026-04-24 22:02 | -41.00943 | -71.33925 | 11305 ft | 309 kts | 71° |
| 2026-04-24 22:03 | -41.00691 | -71.31122 | 12045 ft | 309 kts | 99° |
| 2026-04-24 22:03 | -41.00966 | -71.28286 | 12780 ft | 311 kts | 101° |
| 2026-04-24 22:03 | -41.00910 | -71.25389 | 13445 ft | 322 kts | 75° |
| 2026-04-24 22:03 | -40.99997 | -71.22682 | 14193 ft | 323 kts | 60° |
| 2026-04-24 22:04 | -40.98890 | -71.20068 | 14893 ft | 327 kts | 59° |
| 2026-04-24 22:04 | -40.97766 | -71.17428 | 15614 ft | 329 kts | 59° |
| 2026-04-24 22:04 | -40.96651 | -71.14775 | 16316 ft | 332 kts | 59° |
| 2026-04-24 22:04 | -40.95531 | -71.12084 | 17026 ft | 335 kts | 60° |
| 2026-04-24 22:05 | -40.94403 | -71.09363 | 17644 ft | 343 kts | 60° |
| 2026-04-24 22:05 | -40.93218 | -71.06510 | 17818 ft | 364 kts | 60° |
| 2026-04-24 22:05 | -40.91961 | -71.03488 | 17998 ft | 385 kts | 60° |
| 2026-04-24 22:05 | -40.90640 | -71.00311 | 18186 ft | 404 kts | 60° |
| 2026-04-24 22:06 | -40.89264 | -70.97003 | 18593 ft | 415 kts | 60° |
| 2026-04-24 22:06 | -40.87859 | -70.93628 | 19154 ft | 419 kts | 60° |
| 2026-04-24 22:06 | -40.86454 | -70.90252 | 19823 ft | 420 kts | 60° |
| 2026-04-24 22:06 | -40.85033 | -70.86844 | 20441 ft | 423 kts | 60° |
| 2026-04-24 22:07 | -40.83609 | -70.83433 | 21060 ft | 426 kts | 60° |
| 2026-04-24 22:07 | -40.82170 | -70.79990 | 21643 ft | 429 kts | 59° |
| 2026-04-24 22:07 | -40.80723 | -70.76534 | 22198 ft | 433 kts | 59° |
| 2026-04-24 22:07 | -40.79273 | -70.73075 | 22743 ft | 436 kts | 59° |
| 2026-04-24 22:08 | -40.77781 | -70.69516 | 23300 ft | 439 kts | 59° |
| 2026-04-24 22:08 | -40.76310 | -70.66015 | 23797 ft | 443 kts | 59° |
| 2026-04-24 22:08 | -40.74803 | -70.62460 | 24232 ft | 446 kts | 57° |
| 2026-04-24 22:08 | -40.72924 | -70.59157 | 24746 ft | 442 kts | 45° |
| 2026-04-24 22:09 | -40.70840 | -70.56259 | 25271 ft | 442 kts | 42° |
| 2026-04-24 22:09 | -40.68676 | -70.53337 | 25692 ft | 446 kts | 42° |
| 2026-04-24 22:09 | -40.66511 | -70.50372 | 26056 ft | 451 kts | 43° |
| 2026-04-24 22:09 | -40.64355 | -70.47344 | 26441 ft | 455 kts | 43° |
| 2026-04-24 22:10 | -40.62198 | -70.44272 | 26864 ft | 457 kts | 44° |
| 2026-04-24 22:10 | -40.60043 | -70.41165 | 27277 ft | 460 kts | 46° |
| 2026-04-24 22:10 | -40.58021 | -70.37864 | 27644 ft | 466 kts | 49° |
| 2026-04-24 22:10 | -40.56073 | -70.34460 | 28020 ft | 469 kts | 50° |
| 2026-04-24 22:11 | -40.54133 | -70.30985 | 28402 ft | 472 kts | 50° |
| 2026-04-24 22:11 | -40.52185 | -70.27483 | 28775 ft | 475 kts | 50° |
| 2026-04-24 22:11 | -40.50194 | -70.23927 | 29139 ft | 478 kts | 50° |
| 2026-04-24 22:11 | -40.48232 | -70.20451 | 29484 ft | 480 kts | 50° |
| 2026-04-24 22:12 | -40.46228 | -70.16930 | 29786 ft | 484 kts | 49° |
| 2026-04-24 22:12 | -40.44166 | -70.13328 | 30037 ft | 488 kts | 49° |
| 2026-04-24 22:12 | -40.42118 | -70.09763 | 30384 ft | 489 kts | 49° |
| 2026-04-24 22:12 | -40.40063 | -70.06191 | 30702 ft | 490 kts | 49° |
| 2026-04-24 22:13 | -40.38007 | -70.02623 | 30969 ft | 492 kts | 49° |
| 2026-04-24 22:13 | -40.36074 | -69.99274 | 31223 ft | 494 kts | 48° |
| 2026-04-24 22:13 | -40.33985 | -69.95655 | 31497 ft | 496 kts | 48° |
| 2026-04-24 22:13 | -40.31897 | -69.92042 | 31775 ft | 498 kts | 48° |
| 2026-04-24 22:14 | -40.29840 | -69.88484 | 32132 ft | 497 kts | 48° |
| 2026-04-24 22:14 | -40.27754 | -69.84878 | 32547 ft | 495 kts | 48° |
| 2026-04-24 22:14 | -40.25679 | -69.81297 | 32902 ft | 494 kts | 48° |
| 2026-04-24 22:14 | -40.23592 | -69.77700 | 33208 ft | 494 kts | 47° |
| 2026-04-24 22:15 | -40.21510 | -69.74117 | 33550 ft | 494 kts | 47° |
| 2026-04-24 22:15 | -40.19425 | -69.70533 | 33885 ft | 493 kts | 47° |
| 2026-04-24 22:15 | -40.17351 | -69.66971 | 34192 ft | 493 kts | 47° |
| 2026-04-24 22:15 | -40.15263 | -69.63391 | 34413 ft | 494 kts | 47° |
| 2026-04-24 22:16 | -40.13179 | -69.59823 | 34571 ft | 496 kts | 47° |
| 2026-04-24 22:16 | -40.11078 | -69.56230 | 34775 ft | 498 kts | 47° |
| 2026-04-24 22:16 | -40.08976 | -69.52638 | 35024 ft | 498 kts | 47° |
| 2026-04-24 22:16 | -40.06861 | -69.49027 | 35172 ft | 500 kts | 48° |
| 2026-04-24 22:17 | -40.04738 | -69.45408 | 35289 ft | 504 kts | 48° |
| 2026-04-24 22:17 | -40.02601 | -69.41768 | 35536 ft | 503 kts | 48° |
| 2026-04-24 22:17 | -40.00471 | -69.38141 | 35814 ft | 503 kts | 48° |
| 2026-04-24 22:17 | -39.98346 | -69.34528 | 36042 ft | 503 kts | 48° |
| 2026-04-24 22:18 | -39.96213 | -69.30906 | 36250 ft | 504 kts | 48° |
| 2026-04-24 22:18 | -39.94078 | -69.27287 | 36472 ft | 504 kts | 48° |
| 2026-04-24 22:18 | -39.91939 | -69.23664 | 36671 ft | 504 kts | 48° |
| 2026-04-24 22:18 | -39.89821 | -69.20082 | 36861 ft | 505 kts | 48° |
| 2026-04-24 22:19 | -39.87679 | -69.16463 | 37014 ft | 506 kts | 48° |
| 2026-04-24 22:19 | -39.85522 | -69.12823 | 37138 ft | 508 kts | 48° |
| 2026-04-24 22:19 | -39.83352 | -69.09166 | 37083 ft | 511 kts | 48° |
| 2026-04-24 22:20 | -39.79006 | -69.01851 | 37116 ft | 510 kts | 48° |
| 2026-04-24 22:20 | -39.74809 | -68.94799 | 37113 ft | 504 kts | 48° |
| 2026-04-24 22:21 | -39.70513 | -68.87600 | 37110 ft | 502 kts | 48° |
| 2026-04-24 22:21 | -39.66231 | -68.80445 | 37111 ft | 500 kts | 48° |
| 2026-04-24 22:22 | -39.61954 | -68.73313 | 37108 ft | 500 kts | 48° |
| 2026-04-24 22:22 | -39.57707 | -68.66247 | 37110 ft | 500 kts | 48° |
| 2026-04-24 22:23 | -39.53426 | -68.59139 | 37075 ft | 500 kts | 48° |
| 2026-04-24 22:23 | -39.49135 | -68.52031 | 37097 ft | 500 kts | 48° |
| 2026-04-24 22:24 | -39.44843 | -68.44937 | 37101 ft | 500 kts | 48° |
| 2026-04-24 22:24 | -39.40517 | -68.37801 | 37104 ft | 500 kts | 48° |
| 2026-04-24 22:25 | -39.36241 | -68.30761 | 37099 ft | 500 kts | 48° |
| 2026-04-24 22:25 | -39.31903 | -68.23640 | 37096 ft | 500 kts | 47° |
| 2026-04-24 22:26 | -39.27622 | -68.16634 | 37100 ft | 500 kts | 48° |
| 2026-04-24 22:26 | -39.23305 | -68.09582 | 37096 ft | 500 kts | 47° |
| 2026-04-24 22:27 | -39.18999 | -68.02559 | 37100 ft | 499 kts | 47° |
| 2026-04-24 22:27 | -39.14803 | -67.95731 | 37096 ft | 498 kts | 47° |
| 2026-04-24 22:28 | -39.10500 | -67.88743 | 37095 ft | 498 kts | 47° |
| 2026-04-24 22:28 | -39.06189 | -67.81757 | 37100 ft | 497 kts | 47° |
| 2026-04-24 22:29 | -38.99747 | -67.71349 | 37090 ft | 496 kts | 47° |
| 2026-04-24 22:29 | -38.95442 | -67.64411 | 37093 ft | 496 kts | 47° |
| 2026-04-24 22:30 | -38.91130 | -67.57477 | 37094 ft | 496 kts | 47° |
| 2026-04-24 22:30 | -38.86815 | -67.50553 | 37093 ft | 495 kts | 47° |
| 2026-04-24 22:31 | -38.82537 | -67.43704 | 37091 ft | 495 kts | 47° |
| 2026-04-24 22:31 | -38.78219 | -67.36805 | 37089 ft | 495 kts | 47° |
| 2026-04-24 22:32 | -38.73902 | -67.29923 | 37096 ft | 495 kts | 47° |
| 2026-04-24 22:32 | -38.69587 | -67.23058 | 37085 ft | 495 kts | 47° |
| 2026-04-24 22:33 | -38.65994 | -67.17354 | 37092 ft | 494 kts | 47° |
| 2026-04-24 22:33 | -38.60950 | -67.09362 | 37085 ft | 494 kts | 47° |
| 2026-04-24 22:34 | -38.57326 | -67.03631 | 37083 ft | 493 kts | 47° |
| 2026-04-24 22:34 | -38.53156 | -66.97052 | 37085 ft | 493 kts | 47° |
| 2026-04-24 22:35 | -38.48835 | -66.90246 | 37089 ft | 493 kts | 47° |
| 2026-04-24 22:35 | -38.44511 | -66.83452 | 37089 ft | 493 kts | 47° |
| 2026-04-24 22:36 | -38.40173 | -66.76647 | 37088 ft | 493 kts | 47° |
| 2026-04-24 22:36 | -38.35840 | -66.69863 | 37087 ft | 494 kts | 46° |
| 2026-04-24 22:37 | -38.31923 | -66.62639 | 37099 ft | 499 kts | 58° |
| 2026-04-24 22:37 | -38.28681 | -66.54822 | 37096 ft | 499 kts | 59° |
| 2026-04-24 22:38 | -38.25481 | -66.47029 | 37051 ft | 499 kts | 59° |
| 2026-04-24 22:38 | -38.22216 | -66.39223 | 37080 ft | 499 kts | 59° |
| 2026-04-24 22:39 | -38.18925 | -66.31455 | 37087 ft | 499 kts | 58° |
| 2026-04-24 22:39 | -38.15603 | -66.23650 | 37081 ft | 499 kts | 58° |
| 2026-04-24 22:40 | -38.12295 | -66.15892 | 37087 ft | 499 kts | 58° |
| 2026-04-24 22:40 | -38.08977 | -66.08125 | 37078 ft | 499 kts | 58° |
| 2026-04-24 22:41 | -38.05682 | -66.00428 | 37085 ft | 499 kts | 58° |
| 2026-04-24 22:41 | -38.02458 | -65.92916 | 37067 ft | 499 kts | 58° |
| 2026-04-24 22:42 | -37.99165 | -65.85261 | 37079 ft | 499 kts | 58° |
| 2026-04-24 22:42 | -37.95814 | -65.77489 | 37083 ft | 498 kts | 58° |
| 2026-04-24 22:43 | -37.92486 | -65.69791 | 37079 ft | 498 kts | 58° |
| 2026-04-24 22:43 | -37.89170 | -65.62138 | 37078 ft | 498 kts | 58° |
| 2026-04-24 22:44 | -37.85833 | -65.54457 | 37077 ft | 497 kts | 57° |
| 2026-04-24 22:44 | -37.82494 | -65.46788 | 37079 ft | 496 kts | 57° |
| 2026-04-24 22:45 | -37.79163 | -65.39153 | 37081 ft | 495 kts | 57° |
| 2026-04-24 22:45 | -37.75825 | -65.31524 | 37076 ft | 495 kts | 57° |
| 2026-04-24 22:46 | -37.72495 | -65.23930 | 37076 ft | 494 kts | 57° |
| 2026-04-24 22:46 | -37.69153 | -65.16329 | 37076 ft | 494 kts | 57° |
| 2026-04-24 22:47 | -37.65810 | -65.08740 | 37078 ft | 494 kts | 57° |
| 2026-04-24 22:47 | -37.62460 | -65.01156 | 37076 ft | 494 kts | 57° |
| 2026-04-24 22:48 | -37.59198 | -64.93786 | 37082 ft | 494 kts | 56° |
| 2026-04-24 22:48 | -37.55838 | -64.86213 | 37072 ft | 494 kts | 56° |
| 2026-04-24 22:49 | -37.52483 | -64.78668 | 37074 ft | 494 kts | 56° |
| 2026-04-24 22:49 | -37.49116 | -64.71113 | 37077 ft | 494 kts | 56° |
| 2026-04-24 22:50 | -37.45757 | -64.63594 | 37076 ft | 493 kts | 56° |
| 2026-04-24 22:50 | -37.42384 | -64.56063 | 37071 ft | 493 kts | 56° |
| 2026-04-24 22:51 | -37.39013 | -64.48551 | 37076 ft | 493 kts | 56° |
| 2026-04-24 22:51 | -37.35639 | -64.41047 | 37068 ft | 492 kts | 56° |
| 2026-04-24 22:52 | -37.32252 | -64.33553 | 37055 ft | 492 kts | 55° |
| 2026-04-24 22:52 | -37.28834 | -64.26084 | 37069 ft | 492 kts | 55° |
| 2026-04-24 22:53 | -37.25408 | -64.18625 | 37070 ft | 493 kts | 55° |
| 2026-04-24 22:53 | -37.21976 | -64.11159 | 37069 ft | 494 kts | 55° |
| 2026-04-24 22:54 | -37.18542 | -64.03696 | 37057 ft | 495 kts | 55° |
| 2026-04-24 22:54 | -37.15171 | -63.96386 | 37067 ft | 495 kts | 55° |
| 2026-04-24 22:55 | -37.11716 | -63.88910 | 37068 ft | 496 kts | 54° |
| 2026-04-24 22:55 | -37.08271 | -63.81475 | 37063 ft | 496 kts | 54° |
| 2026-04-24 22:56 | -37.04797 | -63.73992 | 37059 ft | 497 kts | 54° |
| 2026-04-24 22:56 | -37.01316 | -63.66511 | 37060 ft | 497 kts | 54° |
| 2026-04-24 22:57 | -36.97840 | -63.59058 | 37062 ft | 497 kts | 54° |
| 2026-04-24 22:57 | -36.94377 | -63.51650 | 37061 ft | 496 kts | 54° |
| 2026-04-24 22:58 | -36.90885 | -63.44196 | 37064 ft | 495 kts | 54° |
| 2026-04-24 22:58 | -36.87374 | -63.36720 | 37052 ft | 495 kts | 54° |
| 2026-04-24 22:59 | -36.83904 | -63.29348 | 37062 ft | 496 kts | 54° |
| 2026-04-24 23:00 | -36.78629 | -63.18172 | 37059 ft | 496 kts | 54° |
| 2026-04-24 23:00 | -36.75143 | -63.10806 | 37039 ft | 496 kts | 53° |
| 2026-04-24 23:01 | -36.71623 | -63.03384 | 37055 ft | 497 kts | 53° |
| 2026-04-24 23:01 | -36.68206 | -62.96197 | 37051 ft | 497 kts | 53° |
| 2026-04-24 23:02 | -36.64672 | -62.88778 | 37050 ft | 498 kts | 53° |
| 2026-04-24 23:02 | -36.61119 | -62.81338 | 37034 ft | 499 kts | 53° |
| 2026-04-24 23:03 | -36.57566 | -62.73911 | 37045 ft | 499 kts | 53° |
| 2026-04-24 23:03 | -36.54002 | -62.66480 | 37048 ft | 500 kts | 53° |
| 2026-04-24 23:04 | -36.50428 | -62.59045 | 37044 ft | 501 kts | 53° |
| 2026-04-24 23:04 | -36.46850 | -62.51617 | 37002 ft | 501 kts | 53° |
| 2026-04-24 23:05 | -36.43874 | -62.45449 | 37041 ft | 501 kts | 53° |
| 2026-04-24 23:05 | -36.40284 | -62.38027 | 37047 ft | 501 kts | 53° |
| 2026-04-24 23:06 | -36.36079 | -62.29355 | 37043 ft | 502 kts | 53° |
| 2026-04-24 23:06 | -36.32492 | -62.21974 | 37018 ft | 503 kts | 53° |
| 2026-04-24 23:07 | -36.29467 | -62.15760 | 37044 ft | 503 kts | 53° |
| 2026-04-24 23:07 | -36.25850 | -62.08345 | 37042 ft | 503 kts | 53° |
| 2026-04-24 23:08 | -36.22220 | -62.00922 | 37036 ft | 503 kts | 53° |
| 2026-04-24 23:08 | -36.18669 | -61.93675 | 37040 ft | 503 kts | 53° |
| 2026-04-24 23:09 | -36.15059 | -61.86319 | 37031 ft | 503 kts | 53° |
| 2026-04-24 23:09 | -36.11421 | -61.78925 | 37041 ft | 502 kts | 53° |
| 2026-04-24 23:10 | -36.07764 | -61.71500 | 37041 ft | 502 kts | 53° |
| 2026-04-24 23:10 | -36.04128 | -61.64114 | 37041 ft | 502 kts | 53° |
| 2026-04-24 23:11 | -36.00677 | -61.56581 | 37025 ft | 503 kts | 56° |
| 2026-04-24 23:11 | -35.97369 | -61.49073 | 37032 ft | 504 kts | 56° |
| 2026-04-24 23:12 | -35.93989 | -61.41472 | 37051 ft | 504 kts | 55° |
| 2026-04-24 23:12 | -35.90577 | -61.33900 | 37037 ft | 505 kts | 55° |
| 2026-04-24 23:13 | -35.87150 | -61.26341 | 37045 ft | 505 kts | 55° |
| 2026-04-24 23:13 | -35.83703 | -61.18759 | 37039 ft | 506 kts | 55° |
| 2026-04-24 23:14 | -35.80253 | -61.11183 | 36887 ft | 510 kts | 55° |
| 2026-04-24 23:14 | -35.78501 | -61.07344 | 36324 ft | 513 kts | 55° |
| 2026-04-24 23:14 | -35.76761 | -61.03531 | 35761 ft | 510 kts | 55° |
| 2026-04-24 23:14 | -35.75064 | -60.99814 | 35175 ft | 510 kts | 55° |
| 2026-04-24 23:15 | -35.73408 | -60.96189 | 34698 ft | 507 kts | 55° |
| 2026-04-24 23:15 | -35.71691 | -60.92433 | 34276 ft | 503 kts | 55° |
| 2026-04-24 23:15 | -35.69976 | -60.88688 | 33795 ft | 499 kts | 55° |
| 2026-04-24 23:15 | -35.68275 | -60.84978 | 33298 ft | 494 kts | 55° |
| 2026-04-24 23:16 | -35.66593 | -60.81314 | 32852 ft | 489 kts | 55° |
| 2026-04-24 23:16 | -35.64922 | -60.77679 | 32431 ft | 484 kts | 55° |
| 2026-04-24 23:16 | -35.63274 | -60.74099 | 31987 ft | 479 kts | 55° |
| 2026-04-24 23:16 | -35.61639 | -60.70551 | 31589 ft | 474 kts | 55° |
| 2026-04-24 23:17 | -35.60020 | -60.67044 | 31183 ft | 470 kts | 55° |
| 2026-04-24 23:17 | -35.58417 | -60.63574 | 30762 ft | 465 kts | 55° |
| 2026-04-24 23:17 | -35.56825 | -60.60131 | 30355 ft | 461 kts | 55° |
| 2026-04-24 23:17 | -35.55244 | -60.56715 | 29922 ft | 457 kts | 55° |
| 2026-04-24 23:18 | -35.53673 | -60.53325 | 29470 ft | 453 kts | 55° |
| 2026-04-24 23:18 | -35.52129 | -60.49993 | 29060 ft | 447 kts | 55° |
| 2026-04-24 23:18 | -35.50613 | -60.46726 | 28616 ft | 443 kts | 55° |
| 2026-04-24 23:18 | -35.49096 | -60.43461 | 28225 ft | 438 kts | 56° |
| 2026-04-24 23:19 | -35.47578 | -60.40197 | 27809 ft | 433 kts | 55° |
| 2026-04-24 23:19 | -35.46105 | -60.37035 | 27408 ft | 429 kts | 55° |
| 2026-04-24 23:19 | -35.44629 | -60.33866 | 27001 ft | 426 kts | 55° |
| 2026-04-24 23:19 | -35.43159 | -60.30716 | 26594 ft | 422 kts | 55° |
| 2026-04-24 23:20 | -35.41702 | -60.27595 | 26202 ft | 419 kts | 55° |
| 2026-04-24 23:20 | -35.40260 | -60.24509 | 25804 ft | 416 kts | 55° |
| 2026-04-24 23:20 | -35.38820 | -60.21432 | 25412 ft | 413 kts | 55° |
| 2026-04-24 23:20 | -35.37411 | -60.18422 | 25031 ft | 411 kts | 55° |
| 2026-04-24 23:21 | -35.35996 | -60.15400 | 24635 ft | 408 kts | 56° |
| 2026-04-24 23:21 | -35.34585 | -60.12393 | 24244 ft | 406 kts | 56° |
| 2026-04-24 23:21 | -35.33183 | -60.09406 | 23874 ft | 403 kts | 56° |
| 2026-04-24 23:21 | -35.31782 | -60.06423 | 23464 ft | 401 kts | 56° |
| 2026-04-24 23:22 | -35.30391 | -60.03464 | 23017 ft | 399 kts | 56° |
| 2026-04-24 23:22 | -35.29006 | -60.00521 | 22604 ft | 396 kts | 56° |
| 2026-04-24 23:22 | -35.27698 | -59.97741 | 22250 ft | 392 kts | 56° |
| 2026-04-24 23:22 | -35.26342 | -59.94864 | 21863 ft | 389 kts | 56° |
| 2026-04-24 23:23 | -35.24997 | -59.92012 | 21495 ft | 386 kts | 56° |
| 2026-04-24 23:23 | -35.23673 | -59.89208 | 21108 ft | 383 kts | 56° |
| 2026-04-24 23:23 | -35.22341 | -59.86389 | 20726 ft | 380 kts | 56° |
| 2026-04-24 23:23 | -35.21025 | -59.83606 | 20364 ft | 377 kts | 56° |
| 2026-04-24 23:24 | -35.19716 | -59.80839 | 19998 ft | 375 kts | 56° |
| 2026-04-24 23:24 | -35.18412 | -59.78086 | 19636 ft | 372 kts | 56° |
| 2026-04-24 23:24 | -35.17116 | -59.75351 | 19273 ft | 370 kts | 56° |
| 2026-04-24 23:24 | -35.15830 | -59.72642 | 18912 ft | 368 kts | 56° |
| 2026-04-24 23:25 | -35.14543 | -59.69931 | 18553 ft | 366 kts | 56° |
| 2026-04-24 23:25 | -35.13265 | -59.67242 | 18171 ft | 365 kts | 56° |
| 2026-04-24 23:25 | -35.11994 | -59.64567 | 17767 ft | 363 kts | 57° |
| 2026-04-24 23:25 | -35.10731 | -59.61914 | 17393 ft | 360 kts | 57° |
| 2026-04-24 23:26 | -35.09476 | -59.59277 | 17027 ft | 357 kts | 57° |
| 2026-04-24 23:26 | -35.08236 | -59.56676 | 16682 ft | 354 kts | 57° |
| 2026-04-24 23:26 | -35.06998 | -59.54078 | 16326 ft | 352 kts | 57° |
| 2026-04-24 23:26 | -35.05765 | -59.51495 | 15975 ft | 349 kts | 57° |
| 2026-04-24 23:27 | -35.04561 | -59.48976 | 15638 ft | 347 kts | 57° |
| 2026-04-24 23:27 | -35.03348 | -59.46437 | 15292 ft | 345 kts | 57° |
| 2026-04-24 23:27 | -35.02142 | -59.43916 | 14952 ft | 343 kts | 57° |
| 2026-04-24 23:27 | -35.00941 | -59.41408 | 14611 ft | 341 kts | 58° |
| 2026-04-24 23:28 | -34.99755 | -59.38931 | 14275 ft | 339 kts | 58° |
| 2026-04-24 23:28 | -34.98564 | -59.36447 | 13946 ft | 338 kts | 58° |
| 2026-04-24 23:28 | -34.97382 | -59.33984 | 13569 ft | 336 kts | 58° |
| 2026-04-24 23:28 | -34.96205 | -59.31530 | 13205 ft | 334 kts | 58° |
| 2026-04-24 23:29 | -34.95037 | -59.29099 | 12887 ft | 331 kts | 58° |
| 2026-04-24 23:29 | -34.93881 | -59.26692 | 12540 ft | 328 kts | 58° |
| 2026-04-24 23:29 | -34.92730 | -59.24300 | 12218 ft | 326 kts | 58° |
| 2026-04-24 23:29 | -34.91601 | -59.21954 | 11892 ft | 323 kts | 58° |
| 2026-04-24 23:30 | -34.90466 | -59.19597 | 11567 ft | 321 kts | 58° |
| 2026-04-24 23:30 | -34.89336 | -59.17254 | 11239 ft | 319 kts | 58° |
| 2026-04-24 23:30 | -34.88214 | -59.14926 | 10924 ft | 317 kts | 58° |
| 2026-04-24 23:30 | -34.87096 | -59.12611 | 10606 ft | 315 kts | 58° |
| 2026-04-24 23:31 | -34.85991 | -59.10322 | 10374 ft | 311 kts | 58° |
| 2026-04-24 23:31 | -34.84910 | -59.08084 | 10248 ft | 302 kts | 58° |
| 2026-04-24 23:31 | -34.83857 | -59.05904 | 10118 ft | 294 kts | 58° |
| 2026-04-24 23:31 | -34.82799 | -59.03804 | 9807 ft | 292 kts | 52° |
| 2026-04-24 23:32 | -34.81424 | -59.01944 | 9358 ft | 295 kts | 43° |
| 2026-04-24 23:32 | -34.79945 | -59.00213 | 9050 ft | 293 kts | 42° |
| 2026-04-24 23:32 | -34.78559 | -58.98620 | 8804 ft | 290 kts | 42° |
| 2026-04-24 23:32 | -34.77107 | -58.96936 | 8554 ft | 287 kts | 42° |
| 2026-04-24 23:33 | -34.75679 | -58.95258 | 8297 ft | 284 kts | 43° |
| 2026-04-24 23:33 | -34.74730 | -58.94133 | 8128 ft | 282 kts | 43° |
| 2026-04-24 23:33 | -34.72881 | -58.91925 | 7802 ft | 278 kts | 43° |
| 2026-04-24 23:33 | -34.71517 | -58.90287 | 7628 ft | 272 kts | 43° |
| 2026-04-24 23:34 | -34.70170 | -58.88665 | 7359 ft | 271 kts | 43° |
| 2026-04-24 23:34 | -34.68840 | -58.87061 | 7083 ft | 270 kts | 43° |
| 2026-04-24 23:34 | -34.67524 | -58.85472 | 6825 ft | 269 kts | 43° |
| 2026-04-24 23:34 | -34.66202 | -58.83875 | 6557 ft | 268 kts | 43° |
| 2026-04-24 23:35 | -34.64882 | -58.82281 | 6268 ft | 267 kts | 43° |
| 2026-04-24 23:35 | -34.63569 | -58.80694 | 5981 ft | 266 kts | 43° |
| 2026-04-24 23:35 | -34.62260 | -58.79113 | 5689 ft | 265 kts | 43° |
| 2026-04-24 23:35 | -34.60955 | -58.77538 | 5422 ft | 264 kts | 43° |
| 2026-04-24 23:36 | -34.59657 | -58.75972 | 5154 ft | 262 kts | 43° |
| 2026-04-24 23:36 | -34.58368 | -58.74416 | 4871 ft | 261 kts | 43° |
| 2026-04-24 23:36 | -34.57081 | -58.72865 | 4591 ft | 259 kts | 43° |
| 2026-04-24 23:36 | -34.55804 | -58.71325 | 4289 ft | 259 kts | 43° |
| 2026-04-24 23:37 | -34.54522 | -58.69780 | 3998 ft | 258 kts | 43° |
| 2026-04-24 23:37 | -34.53252 | -58.68250 | 3721 ft | 257 kts | 43° |
| 2026-04-24 23:37 | -34.50792 | -58.65288 | 3487 ft | 241 kts | 43° |
| 2026-04-24 23:38 | -34.49621 | -58.63879 | 3371 ft | 234 kts | 43° |
| 2026-04-24 23:38 | -34.48482 | -58.62510 | 3262 ft | 226 kts | 43° |
| 2026-04-24 23:38 | -34.47389 | -58.61190 | 3163 ft | 218 kts | 45° |
| 2026-04-24 23:38 | -34.46710 | -58.59615 | 3093 ft | 212 kts | 83° |
| 2026-04-24 23:39 | -34.47042 | -58.57877 | 2941 ft | 217 kts | 116° |
| 2026-04-24 23:39 | -34.47786 | -58.56298 | 2674 ft | 220 kts | 119° |
| 2026-04-24 23:39 | -34.48614 | -58.54748 | 2389 ft | 218 kts | 121° |
| 2026-04-24 23:39 | -34.49447 | -58.53254 | 2093 ft | 209 kts | 122° |
| 2026-04-24 23:40 | -34.50239 | -58.51831 | 1825 ft | 197 kts | 121° |
| 2026-04-24 23:40 | -34.50979 | -58.50496 | 1567 ft | 184 kts | 121° |
| 2026-04-24 23:40 | -34.51662 | -58.49264 | 1358 ft | 168 kts | 121° |
| 2026-04-24 23:40 | -34.52284 | -58.48143 | 1125 ft | 155 kts | 121° |
| 2026-04-24 23:41 | -34.52878 | -58.47069 | 948 ft | 151 kts | 122° |
| 2026-04-24 23:41 | -34.53455 | -58.46011 | 738 ft | 149 kts | 122° |
| 2026-04-24 23:41 | -34.54024 | -58.44966 | 516 ft | 147 kts | 123° |
| 2026-04-24 23:41 | -34.54592 | -58.43951 | 342 ft | 144 kts | 124° |
| 2026-04-24 23:42 | -34.55172 | -58.42923 | 142 ft | 149 kts | 124° |
| 2026-04-24 23:42 | -34.55744 | -58.41900 | 26 ft | 135 kts | 123° |
| 2026-04-24 23:42 | -34.56150 | -58.41172 | 30 ft | 73 kts | 124° |
| 2026-04-24 23:42 | -34.56364 | -58.40791 | 26 ft | 29 kts | 123° |
| 2026-04-24 23:43 | -34.56396 | -58.40676 | 29 ft | 14 kts | 54° |
| 2026-04-24 23:43 | -34.56317 | -58.40705 | 24 ft | 13 kts | 317° |
| 2026-04-24 23:43 | -34.56261 | -58.40765 | 24 ft | 5 kts | 319° |
| 2026-04-24 23:43 | -34.56235 | -58.40792 | 27 ft | 5 kts | 319° |
| 2026-04-24 23:44 | -34.56219 | -58.40810 | 24 ft | 5 kts | 319° |
| 2026-04-24 23:44 | -34.56176 | -58.40872 | 25 ft | 13 kts | 298° |
| 2026-04-24 23:44 | -34.56143 | -58.40947 | 27 ft | 17 kts | 300° |
| 2026-04-24 23:44 | -34.56074 | -58.41061 | 24 ft | 16 kts | 307° |
| 2026-04-24 23:45 | -34.56009 | -58.41164 | 26 ft | 15 kts | 307° |
| 2026-04-24 23:45 | -34.55947 | -58.41264 | 24 ft | 14 kts | 306° |
| 2026-04-24 23:45 | -34.55897 | -58.41367 | 26 ft | 14 kts | 297° |
| 2026-04-24 23:45 | -34.55841 | -58.41500 | 26 ft | 13 kts | 297° |
| 2026-04-24 23:46 | -34.55815 | -58.41561 | 26 ft | 9 kts | 297° |
| 2026-04-24 23:46 | -34.55767 | -58.41584 | 24 ft | 9 kts | 26° |
| 2026-04-24 23:46 | -34.55716 | -58.41609 | 25 ft | 9 kts | 307° |
| 2026-04-24 23:46 | -34.55686 | -58.41661 | 24 ft | 6 kts | 307° |
| 2026-04-24 23:47 | -34.55656 | -58.41655 | 24 ft | 5 kts | 36° |
| 2026-04-24 23:47 | -34.55633 | -58.41635 | 24 ft | 0 kts | 33° |
| 2026-04-24 23:47 | -34.55630 | -58.41633 | 24 ft | 1 kts | 33° |